Time;durP1;ratioP1;P1;durP2;ratioP2;P2;SDS_P1;SDS_P2;PMS_P1;PMS_P2;Temp;Humidity;BMP_temperature;BMP_pressure;BME280_temperature;BME280_humidity;BME280_pressure;Samples;Min_cycle;Max_cycle;Signal;HPM_P1;HPM_P2
2021/05/03 00:01:12;;;;;;;5;2.2;;;;;;;;;;;;;
2021/05/03 00:03:37;;;;;;;2.2;1.6;;;;;;;;;;;;;
2021/05/03 00:06:03;;;;;;;1.6;1.4;;;;;;;;;;;;;
2021/05/03 00:08:28;;;;;;;3.4;1.9;;;;;;;;;;;;;
2021/05/03 00:10:53;;;;;;;1.2;1.1;;;;;;;;;;;;;
2021/05/03 00:13:18;;;;;;;1.9;1.5;;;;;;;;;;;;;
2021/05/03 00:15:43;;;;;;;2;1.8;;;;;;;;;;;;;
2021/05/03 00:18:08;;;;;;;3.9;2.3;;;;;;;;;;;;;
2021/05/03 00:20:33;;;;;;;2;1.7;;;;;;;;;;;;;
2021/05/03 00:22:59;;;;;;;3.4;1.7;;;;;;;;;;;;;
2021/05/03 00:25:24;;;;;;;1.6;1.3;;;;;;;;;;;;;
2021/05/03 00:27:49;;;;;;;1.8;1.7;;;;;;;;;;;;;
2021/05/03 00:30:15;;;;;;;3.7;1.9;;;;;;;;;;;;;
2021/05/03 00:32:39;;;;;;;2.2;1.7;;;;;;;;;;;;;
2021/05/03 00:35:07;;;;;;;2.5;1.7;;;;;;;;;;;;;
2021/05/03 00:37:32;;;;;;;1.9;1.7;;;;;;;;;;;;;
2021/05/03 00:39:58;;;;;;;1.9;1.6;;;;;;;;;;;;;
2021/05/03 00:42:23;;;;;;;1.6;1.2;;;;;;;;;;;;;
2021/05/03 00:47:19;;;;;;;2.1;1.6;;;;;;;;;;;;;
2021/05/03 00:49:44;;;;;;;2.7;2.2;;;;;;;;;;;;;
2021/05/03 00:52:11;;;;;;;2.5;1.8;;;;;;;;;;;;;
2021/05/03 00:54:34;;;;;;;3.5;1.7;;;;;;;;;;;;;
2021/05/03 00:56:59;;;;;;;4.1;2;;;;;;;;;;;;;
2021/05/03 00:59:24;;;;;;;3.5;1.9;;;;;;;;;;;;;
2021/05/03 01:01:49;;;;;;;2.4;1.8;;;;;;;;;;;;;
2021/05/03 01:04:15;;;;;;;2.5;1.6;;;;;;;;;;;;;
2021/05/03 01:06:40;;;;;;;3.8;2.1;;;;;;;;;;;;;
2021/05/03 01:09:06;;;;;;;2.1;1.7;;;;;;;;;;;;;
2021/05/03 01:11:31;;;;;;;2.4;2;;;;;;;;;;;;;
2021/05/03 01:13:56;;;;;;;2.9;1.7;;;;;;;;;;;;;
2021/05/03 01:16:22;;;;;;;3.4;2;;;;;;;;;;;;;
2021/05/03 01:18:47;;;;;;;2.9;1.9;;;;;;;;;;;;;
2021/05/03 01:21:12;;;;;;;3.2;2.3;;;;;;;;;;;;;
2021/05/03 01:23:38;;;;;;;1.9;1.7;;;;;;;;;;;;;
2021/05/03 01:26:03;;;;;;;4;1.8;;;;;;;;;;;;;
2021/05/03 01:28:28;;;;;;;1.8;1.7;;;;;;;;;;;;;
2021/05/03 01:30:53;;;;;;;2.7;1.9;;;;;;;;;;;;;
2021/05/03 01:33:18;;;;;;;3.2;1.6;;;;;;;;;;;;;
2021/05/03 01:35:50;;;;;;;2.6;1.7;;;;;;;;;;;;;
2021/05/03 01:38:15;;;;;;;1.9;1.4;;;;;;;;;;;;;
2021/05/03 01:40:40;;;;;;;2;1.5;;;;;;;;;;;;;
2021/05/03 01:43:05;;;;;;;2;1.7;;;;;;;;;;;;;
2021/05/03 01:45:30;;;;;;;1.8;1.4;;;;;;;;;;;;;
2021/05/03 01:47:55;;;;;;;2.9;1.9;;;;;;;;;;;;;
2021/05/03 01:50:20;;;;;;;2.2;1.6;;;;;;;;;;;;;
2021/05/03 01:52:46;;;;;;;2;1.5;;;;;;;;;;;;;
2021/05/03 01:55:12;;;;;;;1.9;1.4;;;;;;;;;;;;;
2021/05/03 01:57:37;;;;;;;2.1;1.5;;;;;;;;;;;;;
2021/05/03 02:00:02;;;;;;;2;1.4;;;;;;;;;;;;;
2021/05/03 02:02:27;;;;;;;1.4;1.2;;;;;;;;;;;;;
2021/05/03 02:04:52;;;;;;;1.8;1.6;;;;;;;;;;;;;
2021/05/03 02:07:17;;;;;;;1.4;1.2;;;;;;;;;;;;;
2021/05/03 02:10:26;;;;;;;2.2;1.4;;;;;;;;;;;;;
2021/05/03 02:12:41;;;;;;;2.5;1.8;;;;;;;;;;;;;
2021/05/03 02:15:48;;;;;;;3;1.9;;;;;;;;;;;;;
2021/05/03 02:17:53;;;;;;;1.9;1.6;;;;;;;;;;;;;
2021/05/03 02:20:18;;;;;;;2.7;1.8;;;;;;;;;;;;;
2021/05/03 02:22:43;;;;;;;3.6;1.7;;;;;;;;;;;;;
2021/05/03 02:25:09;;;;;;;2.1;1.6;;;;;;;;;;;;;
2021/05/03 02:27:45;;;;;;;4.5;2.1;;;;;;;;;;;;;
2021/05/03 02:30:17;;;;;;;1.5;1.4;;;;;;;;;;;;;
2021/05/03 02:32:41;;;;;;;1.4;1.3;;;;;;;;;;;;;
2021/05/03 02:35:06;;;;;;;1.9;1.4;;;;;;;;;;;;;
2021/05/03 02:37:32;;;;;;;3.7;1.9;;;;;;;;;;;;;
2021/05/03 02:39:57;;;;;;;1.8;1.4;;;;;;;;;;;;;
2021/05/03 02:42:23;;;;;;;2.6;1.7;;;;;;;;;;;;;
2021/05/03 02:44:48;;;;;;;2;1.4;;;;;;;;;;;;;
2021/05/03 02:47:14;;;;;;;2.1;1.6;;;;;;;;;;;;;
2021/05/03 02:49:40;;;;;;;1.7;1.4;;;;;;;;;;;;;
2021/05/03 02:52:06;;;;;;;3.2;1.7;;;;;;;;;;;;;
2021/05/03 02:54:31;;;;;;;2;1.5;;;;;;;;;;;;;
2021/05/03 02:56:56;;;;;;;3.2;1.5;;;;;;;;;;;;;
2021/05/03 02:59:21;;;;;;;2.4;1.5;;;;;;;;;;;;;
2021/05/03 03:01:46;;;;;;;1.5;1.2;;;;;;;;;;;;;
2021/05/03 03:04:12;;;;;;;1.7;1.4;;;;;;;;;;;;;
2021/05/03 03:06:37;;;;;;;1.9;1.6;;;;;;;;;;;;;
2021/05/03 03:09:03;;;;;;;2.5;1.8;;;;;;;;;;;;;
2021/05/03 03:11:29;;;;;;;1.9;1.5;;;;;;;;;;;;;
2021/05/03 03:13:54;;;;;;;3.5;2;;;;;;;;;;;;;
2021/05/03 03:16:21;;;;;;;2.7;1.5;;;;;;;;;;;;;
2021/05/03 03:18:46;;;;;;;2.8;1.9;;;;;;;;;;;;;
2021/05/03 03:21:11;;;;;;;2.2;1.2;;;;;;;;;;;;;
2021/05/03 03:23:37;;;;;;;3;1.6;;;;;;;;;;;;;
2021/05/03 03:26:03;;;;;;;1.8;1.3;;;;;;;;;;;;;
2021/05/03 03:28:29;;;;;;;1.9;1.3;;;;;;;;;;;;;
2021/05/03 03:33:19;;;;;;;1.7;1.5;;;;;;;;;;;;;
2021/05/03 03:35:45;;;;;;;2;1.4;;;;;;;;;;;;;
2021/05/03 03:38:10;;;;;;;2.1;1.6;;;;;;;;;;;;;
2021/05/03 03:40:35;;;;;;;1.9;1.3;;;;;;;;;;;;;
2021/05/03 03:43:00;;;;;;;2.5;1.8;;;;;;;;;;;;;
2021/05/03 03:45:25;;;;;;;3.2;1.6;;;;;;;;;;;;;
2021/05/03 03:47:50;;;;;;;2.1;1.7;;;;;;;;;;;;;
2021/05/03 03:50:15;;;;;;;4.8;2;;;;;;;;;;;;;
2021/05/03 03:52:42;;;;;;;2.8;1.8;;;;;;;;;;;;;
2021/05/03 03:55:07;;;;;;;3.8;1.5;;;;;;;;;;;;;
2021/05/03 03:57:33;;;;;;;1.9;1.7;;;;;;;;;;;;;
2021/05/03 03:59:59;;;;;;;2.7;1.8;;;;;;;;;;;;;
2021/05/03 04:02:30;;;;;;;3.1;1.9;;;;;;;5.85;86.64648;942.0596;;;;
2021/05/03 04:05:22;;;;;;;2.4;1.6;;;;;;;5.87;86.66113;942.0759;;;;
2021/05/03 04:07:26;;;;;;;2;1.8;;;;;;;5.93;86.76465;942.0356;;;;
2021/05/03 04:12:35;;;;;;;2.5;1.8;;;;;;;5.9;87.57227;942.0497;;;;
2021/05/03 04:22:09;;;;;;;3.7;2.1;;;;;;;6.09;86.53711;942.0878;;;;
2021/05/03 04:24:25;;;;;;;3.7;2.8;;;;;;;6.08;86.27539;942.0575;;;;
2021/05/03 04:26:49;;;;;;;3.1;2.1;;;;;;;6.12;86.2373;942.0381;;;;
2021/05/03 04:29:14;;;;;;;3.3;2.6;;;;;;;6.09;86.49414;942.0792;;;;
2021/05/03 04:31:44;;;;;;;3.1;2.4;;;;;;;6.07;86.66895;942.1608;;;;
2021/05/03 04:34:09;;;;;;;3.6;2.3;;;;;;;6.13;86.90625;942.2297;;;;
2021/05/03 04:36:36;;;;;;;2.9;2.2;;;;;;;6.17;87.18457;942.1716;;;;
2021/05/03 04:39:01;;;;;;;3;2.4;;;;;;;6.28;86.72266;942.1287;;;;
2021/05/03 04:41:28;;;;;;;3.7;2.4;;;;;;;6.36;86.31934;942.1717;;;;
2021/05/03 04:43:53;;;;;;;2.3;1.9;;;;;;;6.45;85.97559;942.2586;;;;
2021/05/03 04:46:20;;;;;;;2;1.8;;;;;;;6.52;85.94434;942.2861;;;;
2021/05/03 04:48:47;;;;;;;3.9;2.4;;;;;;;6.58;85.77832;942.3205;;;;
2021/05/03 04:51:12;;;;;;;3.2;2;;;;;;;6.59;84.94043;942.3628;;;;
2021/05/03 04:53:37;;;;;;;2.8;1.9;;;;;;;6.61;84.2998;942.3865;;;;
2021/05/03 04:56:05;;;;;;;3.7;2.2;;;;;;;6.54;83.63086;942.358;;;;
2021/05/03 04:58:30;;;;;;;2.8;2.2;;;;;;;6.56;84.03027;942.3847;;;;
2021/05/03 05:00:55;;;;;;;3.2;2.2;;;;;;;;;;;;;
2021/05/03 05:03:20;;;;;;;3.6;2.3;;;;;;;;;;;;;
2021/05/03 05:05:47;;;;;;;3.4;2.3;;;;;;;;;;;;;
2021/05/03 05:08:10;;;;;;;4.8;1.8;;;;;;;;;;;;;
2021/05/03 05:10:35;;;;;;;3.2;1.9;;;;;;;;;;;;;
2021/05/03 05:13:00;;;;;;;2.6;1.8;;;;;;;;;;;;;
2021/05/03 05:15:27;;;;;;;2.1;1.9;;;;;;;;;;;;;
2021/05/03 05:17:52;;;;;;;2.3;1.8;;;;;;;;;;;;;
2021/05/03 05:20:17;;;;;;;2.7;1.9;;;;;;;;;;;;;
2021/05/03 05:22:42;;;;;;;4.9;2;;;;;;;;;;;;;
2021/05/03 05:25:07;;;;;;;3.1;2.1;;;;;;;;;;;;;
2021/05/03 05:27:32;;;;;;;2.1;1.7;;;;;;;;;;;;;
2021/05/03 05:29:57;;;;;;;2.3;2.1;;;;;;;;;;;;;
2021/05/03 05:32:23;;;;;;;1.9;1.7;;;;;;;;;;;;;
2021/05/03 05:34:48;;;;;;;2.3;1.8;;;;;;;;;;;;;
2021/05/03 05:37:14;;;;;;;2.6;2;;;;;;;;;;;;;
2021/05/03 05:39:39;;;;;;;5.7;1.9;;;;;;;;;;;;;
2021/05/03 05:42:04;;;;;;;1.7;1.5;;;;;;;;;;;;;
2021/05/03 05:44:29;;;;;;;3;1.6;;;;;;;;;;;;;
2021/05/03 05:46:55;;;;;;;5.2;2.8;;;;;;;;;;;;;
2021/05/03 05:49:21;;;;;;;3;2.6;;;;;;;;;;;;;
2021/05/03 05:51:47;;;;;;;2.5;2.3;;;;;;;;;;;;;
2021/05/03 05:54:12;;;;;;;2.1;1.7;;;;;;;;;;;;;
2021/05/03 05:56:38;;;;;;;2.8;1.8;;;;;;;;;;;;;
2021/05/03 05:59:03;;;;;;;3.1;1.8;;;;;;;;;;;;;
2021/05/03 06:01:29;;;;;;;2.2;1.8;;;;;;;;;;;;;
2021/05/03 06:03:54;;;;;;;3.5;2;;;;;;;;;;;;;
2021/05/03 06:06:20;;;;;;;2.3;2.1;;;;;;;;;;;;;
2021/05/03 06:08:45;;;;;;;2.4;1.6;;;;;;;;;;;;;
2021/05/03 06:11:12;;;;;;;2.9;1.8;;;;;;;;;;;;;
2021/05/03 06:13:37;;;;;;;2.8;1.7;;;;;;;;;;;;;
2021/05/03 06:16:07;;;;;;;2.4;1.7;;;;;;;;;;;;;
2021/05/03 06:18:34;;;;;;;3.4;2;;;;;;;;;;;;;
2021/05/03 06:20:59;;;;;;;2.2;1.6;;;;;;;;;;;;;
2021/05/03 06:23:26;;;;;;;2.4;1.9;;;;;;;;;;;;;
2021/05/03 06:25:51;;;;;;;1.9;1.6;;;;;;;;;;;;;
2021/05/03 06:28:16;;;;;;;2.7;1.7;;;;;;;;;;;;;
2021/05/03 06:30:41;;;;;;;3.2;1.9;;;;;;;;;;;;;
2021/05/03 06:33:06;;;;;;;2.1;1.6;;;;;;;;;;;;;
2021/05/03 06:35:31;;;;;;;2.4;1.7;;;;;;;;;;;;;
2021/05/03 06:37:57;;;;;;;2.9;2;;;;;;;;;;;;;
2021/05/03 06:40:22;;;;;;;2;1.8;;;;;;;;;;;;;
2021/05/03 06:42:49;;;;;;;2.5;1.9;;;;;;;;;;;;;
2021/05/03 06:45:13;;;;;;;2.1;1.9;;;;;;;;;;;;;
2021/05/03 06:47:39;;;;;;;3.1;2.3;;;;;;;;;;;;;
2021/05/03 06:50:04;;;;;;;3;2;;;;;;;;;;;;;
2021/05/03 06:52:31;;;;;;;5.6;2.1;;;;;;;;;;;;;
2021/05/03 06:54:56;;;;;;;7.2;2.4;;;;;;;;;;;;;
2021/05/03 06:57:22;;;;;;;3;1.8;;;;;;;;;;;;;
2021/05/03 06:59:47;;;;;;;3;2.1;;;;;;;;;;;;;
2021/05/03 07:02:13;;;;;;;2.7;2;;;;;;;;;;;;;
2021/05/03 07:04:38;;;;;;;2.3;1.8;;;;;;;;;;;;;
2021/05/03 07:07:04;;;;;;;2.1;1.9;;;;;;;;;;;;;
2021/05/03 07:09:29;;;;;;;1.7;1.4;;;;;;;;;;;;;
2021/05/03 07:11:55;;;;;;;2.9;1.9;;;;;;;;;;;;;
2021/05/03 07:14:19;;;;;;;2.9;2.1;;;;;;;;;;;;;
2021/05/03 07:16:44;;;;;;;3.4;1.9;;;;;;;;;;;;;
2021/05/03 07:19:10;;;;;;;2.3;1.7;;;;;;;;;;;;;
2021/05/03 07:21:35;;;;;;;1.6;1.3;;;;;;;;;;;;;
2021/05/03 07:24:02;;;;;;;2.9;1.4;;;;;;;;;;;;;
2021/05/03 07:26:26;;;;;;;2.4;0.9;;;;;;;;;;;;;
2021/05/03 07:28:52;;;;;;;1.6;1;;;;;;;;;;;;;
2021/05/03 07:31:17;;;;;;;0.8;0.8;;;;;;;;;;;;;
2021/05/03 07:33:43;;;;;;;0.4;0.4;;;;;;;;;;;;;
2021/05/03 07:36:09;;;;;;;1.1;0.8;;;;;;;;;;;;;
2021/05/03 07:38:34;;;;;;;2.8;0.7;;;;;;;;;;;;;
2021/05/03 07:40:59;;;;;;;1.4;1;;;;;;;;;;;;;
2021/05/03 07:43:26;;;;;;;0.8;0.8;;;;;;;;;;;;;
2021/05/03 07:45:51;;;;;;;1.3;1;;;;;;;;;;;;;
2021/05/03 07:48:17;;;;;;;2.6;0.7;;;;;;;;;;;;;
2021/05/03 07:50:46;;;;;;;3.6;0.9;;;;;;;;;;;;;
2021/05/03 07:53:07;;;;;;;1.2;0.9;;;;;;;;;;;;;
2021/05/03 07:55:32;;;;;;;1.5;0.8;;;;;;;;;;;;;
2021/05/03 07:58:00;;;;;;;1;0.9;;;;;;;;;;;;;
2021/05/03 08:00:22;;;;;;;1.3;0.9;;;;;;;;;;;;;
2021/05/03 08:02:48;;;;;;;1.5;0.9;;;;;;;;;;;;;
2021/05/03 08:05:15;;;;;;;1;0.7;;;;;;;;;;;;;
2021/05/03 08:07:40;;;;;;;1.7;0.7;;;;;;;;;;;;;
2021/05/03 08:10:06;;;;;;;0.5;0.5;;;;;;;;;;;;;
2021/05/03 08:12:32;;;;;;;0.5;0.5;;;;;;;;;;;;;
2021/05/03 08:14:59;;;;;;;0.7;0.7;;;;;;;;;;;;;
2021/05/03 08:17:21;;;;;;;0.7;0.6;;;;;;;;;;;;;
2021/05/03 08:19:48;;;;;;;0.8;0.7;;;;;;;;;;;;;
2021/05/03 08:22:13;;;;;;;3.1;0.7;;;;;;;;;;;;;
2021/05/03 08:24:39;;;;;;;1.6;0.7;;;;;;;;;;;;;
2021/05/03 08:27:04;;;;;;;0.5;0.5;;;;;;;;;;;;;
2021/05/03 08:29:30;;;;;;;1.5;0.7;;;;;;;;;;;;;
2021/05/03 08:31:56;;;;;;;0.5;0.5;;;;;;;;;;;;;
2021/05/03 08:34:21;;;;;;;0.7;0.7;;;;;;;;;;;;;
2021/05/03 08:36:46;;;;;;;2.5;0.9;;;;;;;;;;;;;
2021/05/03 08:39:12;;;;;;;0.7;0.6;;;;;;;;;;;;;
2021/05/03 08:41:37;;;;;;;1.4;0.7;;;;;;;;;;;;;
2021/05/03 08:44:03;;;;;;;0.7;0.7;;;;;;;;;;;;;
2021/05/03 08:46:30;;;;;;;0.6;0.6;;;;;;;;;;;;;
2021/05/03 08:48:57;;;;;;;1;0.9;;;;;;;;;;;;;
2021/05/03 08:51:29;;;;;;;1.2;0.7;;;;;;;;;;;;;
2021/05/03 08:53:54;;;;;;;0.2;0.2;;;;;;;;;;;;;
2021/05/03 08:56:09;;;;;;;0.6;0.5;;;;;;;;;;;;;
2021/05/03 08:58:34;;;;;;;1.4;0.7;;;;;;;;;;;;;
2021/05/03 09:01:00;;;;;;;2.1;0.6;;;;;;;;;;;;;
2021/05/03 09:03:26;;;;;;;1;0.6;;;;;;;;;;;;;
2021/05/03 09:05:51;;;;;;;0.3;0.3;;;;;;;;;;;;;
2021/05/03 09:08:16;;;;;;;0.7;0.6;;;;;;;;;;;;;
2021/05/03 09:10:41;;;;;;;0.9;0.5;;;;;;;;;;;;;
2021/05/03 09:13:06;;;;;;;0.4;0.3;;;;;;;;;;;;;
2021/05/03 09:15:31;;;;;;;0.2;0.2;;;;;;;;;;;;;
2021/05/03 09:17:56;;;;;;;0.5;0.4;;;;;;;;;;;;;
2021/05/03 09:20:21;;;;;;;1.7;0.6;;;;;;;;;;;;;
2021/05/03 09:22:49;;;;;;;0.7;0.5;;;;;;;;;;;;;
2021/05/03 09:25:23;;;;;;;0.9;0.6;;;;;;;;;;;;;
2021/05/03 09:27:46;;;;;;;1.1;0.8;;;;;;;;;;;;;
2021/05/03 09:30:12;;;;;;;0.9;0.7;;;;;;;;;;;;;
2021/05/03 09:32:37;;;;;;;0.6;0.5;;;;;;;;;;;;;
2021/05/03 09:35:04;;;;;;;0.7;0.7;;;;;;;;;;;;;
2021/05/03 09:37:30;;;;;;;0.7;0.7;;;;;;;;;;;;;
2021/05/03 09:39:54;;;;;;;0.9;0.6;;;;;;;;;;;;;
2021/05/03 09:42:19;;;;;;;0.6;0.6;;;;;;;;;;;;;
2021/05/03 09:44:44;;;;;;;1.9;0.9;;;;;;;;;;;;;
2021/05/03 09:47:09;;;;;;;1.4;0.4;;;;;;;;;;;;;
2021/05/03 09:49:36;;;;;;;0.7;0.7;;;;;;;;;;;;;
2021/05/03 09:52:02;;;;;;;1.7;0.7;;;;;;;;;;;;;
2021/05/03 09:54:28;;;;;;;0.7;0.6;;;;;;;;;;;;;
2021/05/03 09:56:53;;;;;;;0.4;0.4;;;;;;;;;;;;;
2021/05/03 09:59:18;;;;;;;0.6;0.5;;;;;;;;;;;;;
2021/05/03 10:01:43;;;;;;;0.8;0.6;;;;;;;;;;;;;
2021/05/03 10:04:08;;;;;;;1.1;0.7;;;;;;;;;;;;;
2021/05/03 10:06:35;;;;;;;0.3;0.3;;;;;;;;;;;;;
2021/05/03 10:09:00;;;;;;;0.6;0.5;;;;;;;;;;;;;
2021/05/03 10:11:29;;;;;;;1.1;0.7;;;;;;;;;;;;;
2021/05/03 10:13:51;;;;;;;1;0.6;;;;;;;;;;;;;
2021/05/03 10:16:17;;;;;;;0.8;0.5;;;;;;;;;;;;;
2021/05/03 10:18:42;;;;;;;0.3;0.2;;;;;;;;;;;;;
2021/05/03 10:21:07;;;;;;;0.9;0.7;;;;;;;;;;;;;
2021/05/03 10:23:32;;;;;;;0.6;0.5;;;;;;;;;;;;;
2021/05/03 10:25:58;;;;;;;0.8;0.5;;;;;;;;;;;;;
2021/05/03 10:28:23;;;;;;;1.4;1.1;;;;;;;;;;;;;
2021/05/03 10:30:48;;;;;;;0.6;0.5;;;;;;;;;;;;;
2021/05/03 10:33:14;;;;;;;0.6;0.6;;;;;;;;;;;;;
2021/05/03 10:35:38;;;;;;;0.4;0.4;;;;;;;;;;;;;
2021/05/03 10:38:04;;;;;;;0.6;0.4;;;;;;;;;;;;;
2021/05/03 10:40:30;;;;;;;2.6;0.4;;;;;;;;;;;;;
2021/05/03 10:42:54;;;;;;;0.6;0.6;;;;;;;;;;;;;
2021/05/03 10:45:21;;;;;;;0.5;0.5;;;;;;;;;;;;;
2021/05/03 10:47:47;;;;;;;0.5;0.5;;;;;;;;;;;;;
2021/05/03 10:50:12;;;;;;;0.3;0.3;;;;;;;;;;;;;
2021/05/03 10:52:37;;;;;;;1.9;0.8;;;;;;;;;;;;;
2021/05/03 10:55:02;;;;;;;0.9;0.5;;;;;;;;;;;;;
2021/05/03 10:57:27;;;;;;;1;0.3;;;;;;;;;;;;;
2021/05/03 10:59:52;;;;;;;0.7;0.4;;;;;;;;;;;;;
2021/05/03 11:02:17;;;;;;;0.3;0.3;;;;;;;;;;;;;
2021/05/03 11:04:43;;;;;;;0.7;0.3;;;;;;;;;;;;;
2021/05/03 11:07:08;;;;;;;0.7;0.3;;;;;;;;;;;;;
2021/05/03 11:11:07;;;;;;;1;0.6;;;;;;;;;;;;;
2021/05/03 11:13:32;;;;;;;1.1;0.6;;;;;;;;;;;;;
2021/05/03 11:15:57;;;;;;;2.1;0.7;;;;;;;;;;;;;
2021/05/03 11:18:25;;;;;;;0.7;0.5;;;;;;;;;;;;;
2021/05/03 11:20:47;;;;;;;1.4;0.9;;;;;;;;;;;;;
2021/05/03 11:23:13;;;;;;;0.5;0.4;;;;;;;;;;;;;
2021/05/03 11:25:38;;;;;;;0.5;0.5;;;;;;;;;;;;;
2021/05/03 11:28:07;;;;;;;2.3;0.5;;;;;;;;;;;;;
2021/05/03 11:30:31;;;;;;;0.9;0.5;;;;;;;;;;;;;
2021/05/03 11:32:55;;;;;;;0.3;0.3;;;;;;;;;;;;;
2021/05/03 11:35:25;;;;;;;1.4;0.5;;;;;;;;;;;;;
2021/05/03 11:37:45;;;;;;;2;0.3;;;;;;;;;;;;;
2021/05/03 11:40:16;;;;;;;0.8;0.4;;;;;;;;;;;;;
2021/05/03 11:42:57;;;;;;;0.3;0.3;;;;;;;;;;;;;
2021/05/03 11:45:00;;;;;;;2.2;0.6;;;;;;;;;;;;;
2021/05/03 11:47:25;;;;;;;2;0.2;;;;;;;;;;;;;
2021/05/03 11:49:51;;;;;;;0.2;0.2;;;;;;;;;;;;;
2021/05/03 11:52:16;;;;;;;0.2;0.2;;;;;;;;;;;;;
2021/05/03 11:54:43;;;;;;;0.2;0.2;;;;;;;;;;;;;
2021/05/03 11:57:07;;;;;;;0.6;0.5;;;;;;;;;;;;;
2021/05/03 11:59:34;;;;;;;0.3;0.3;;;;;;;;;;;;;
2021/05/03 12:01:59;;;;;;;0.2;0.2;;;;;;;;;;;;;
2021/05/03 12:04:24;;;;;;;1;0.3;;;;;;;;;;;;;
2021/05/03 12:06:50;;;;;;;0.2;0.2;;;;;;;;;;;;;
2021/05/03 12:09:15;;;;;;;0.6;0.5;;;;;;;;;;;;;
2021/05/03 12:11:40;;;;;;;0.5;0.5;;;;;;;;;;;;;
2021/05/03 12:14:07;;;;;;;0.6;0.6;;;;;;;;;;;;;
2021/05/03 12:16:32;;;;;;;0.5;0.3;;;;;;;;;;;;;
2021/05/03 12:18:58;;;;;;;0.4;0.4;;;;;;;;;;;;;
2021/05/03 12:21:23;;;;;;;0.2;0.2;;;;;;;;;;;;;
2021/05/03 12:23:48;;;;;;;0.2;0.2;;;;;;;;;;;;;
2021/05/03 12:26:13;;;;;;;0.2;0.2;;;;;;;;;;;;;
2021/05/03 12:28:39;;;;;;;1;0.5;;;;;;;;;;;;;
2021/05/03 12:31:04;;;;;;;2.4;0.5;;;;;;;;;;;;;
2021/05/03 12:33:29;;;;;;;0.3;0.3;;;;;;;;;;;;;
2021/05/03 12:35:55;;;;;;;0.4;0.3;;;;;;;;;;;;;
2021/05/03 12:38:20;;;;;;;1;0.5;;;;;;;;;;;;;
2021/05/03 12:40:44;;;;;;;0.3;0.3;;;;;;;;;;;;;
2021/05/03 12:43:12;;;;;;;0.2;0.2;;;;;;;;;;;;;
2021/05/03 12:45:41;;;;;;;0.5;0.2;;;;;;;;;;;;;
2021/05/03 12:48:06;;;;;;;0.3;0.2;;;;;;;;;;;;;
2021/05/03 12:50:30;;;;;;;0.5;0.4;;;;;;;;;;;;;
2021/05/03 12:52:56;;;;;;;0.6;0.6;;;;;;;;;;;;;
2021/05/03 12:55:20;;;;;;;0.4;0.3;;;;;;;;;;;;;
2021/05/03 12:57:41;;;;;;;0.4;0.4;;;;;;;;;;;;;
2021/05/03 13:00:10;;;;;;;0.5;0.4;;;;;;;;;;;;;
2021/05/03 13:02:34;;;;;;;1.2;0.4;;;;;;;;;;;;;
2021/05/03 13:05:00;;;;;;;0.4;0.4;;;;;;;;;;;;;
2021/05/03 13:07:40;;;;;;;0.4;0.3;;;;;;;;;;;;;
2021/05/03 13:10:06;;;;;;;0.6;0.5;;;;;;;;;;;;;
2021/05/03 13:24:38;;;;;;;0.3;0.3;;;;;;;;;;;;;
2021/05/03 13:29:09;;;;;;;0.5;0.5;;;;;;;;;;;;;
2021/05/03 13:31:33;;;;;;;0.6;0.2;;;;;;;;;;;;;
2021/05/03 13:33:59;;;;;;;0.3;0.3;;;;;;;;;;;;;
2021/05/03 13:36:24;;;;;;;0.1;0.1;;;;;;;;;;;;;
2021/05/03 13:38:50;;;;;;;0.4;0.4;;;;;;;;;;;;;
2021/05/03 13:41:17;;;;;;;0.6;0.5;;;;;;;;;;;;;
2021/05/03 13:43:42;;;;;;;0.3;0.3;;;;;;;;;;;;;
2021/05/03 13:46:08;;;;;;;0.3;0.3;;;;;;;;;;;;;
2021/05/03 13:48:33;;;;;;;0.6;0.3;;;;;;;;;;;;;
2021/05/03 13:50:58;;;;;;;0.2;0.2;;;;;;;;;;;;;
2021/05/03 13:53:23;;;;;;;0.6;0.3;;;;;;;;;;;;;
2021/05/03 13:55:48;;;;;;;0.2;0.2;;;;;;;;;;;;;
2021/05/03 13:58:13;;;;;;;0.8;0.6;;;;;;;;;;;;;
2021/05/03 14:00:38;;;;;;;0.3;0.3;;;;;;;;;;;;;
2021/05/03 14:03:04;;;;;;;0.5;0.5;;;;;;;;;;;;;
2021/05/03 14:05:29;;;;;;;0.2;0.2;;;;;;;;;;;;;
2021/05/03 14:07:55;;;;;;;0.6;0.4;;;;;;;;;;;;;
2021/05/03 14:10:20;;;;;;;0.4;0.3;;;;;;;;;;;;;
2021/05/03 14:12:46;;;;;;;0.4;0.4;;;;;;;;;;;;;
2021/05/03 14:15:12;;;;;;;0.5;0.4;;;;;;;;;;;;;
2021/05/03 14:17:38;;;;;;;0.3;0.2;;;;;;;;;;;;;
2021/05/03 14:20:03;;;;;;;0.5;0.3;;;;;;;;;;;;;
2021/05/03 14:22:28;;;;;;;0.1;0.1;;;;;;;;;;;;;
2021/05/03 14:24:53;;;;;;;0.5;0.3;;;;;;;;;;;;;
2021/05/03 14:27:20;;;;;;;0.4;0.2;;;;;;;;;;;;;
2021/05/03 14:29:48;;;;;;;0.3;0.3;;;;;;;;;;;;;
2021/05/03 14:32:19;;;;;;;0.9;0.5;;;;;;;;;;;;;
2021/05/03 14:34:39;;;;;;;0.2;0.2;;;;;;;;;;;;;
2021/05/03 14:37:04;;;;;;;1.6;0.7;;;;;;;;;;;;;
2021/05/03 14:39:29;;;;;;;1.5;0.2;;;;;;;;;;;;;
2021/05/03 14:41:54;;;;;;;0.3;0.3;;;;;;;;;;;;;
2021/05/03 14:44:20;;;;;;;2.3;0.5;;;;;;;;;;;;;
2021/05/03 14:46:50;;;;;;;0.4;0.4;;;;;;;;;;;;;
2021/05/03 14:49:34;;;;;;;0.5;0.3;;;;;;;;;;;;;
2021/05/03 14:51:44;;;;;;;1;0.7;;;;;;;;;;;;;
2021/05/03 14:54:14;;;;;;;0.3;0.3;;;;;;;;;;;;;
2021/05/03 14:56:28;;;;;;;0.2;0.2;;;;;;;;;;;;;
2021/05/03 14:58:54;;;;;;;0.2;0.2;;;;;;;;;;;;;
2021/05/03 15:01:19;;;;;;;2;0.6;;;;;;;;;;;;;
2021/05/03 15:03:44;;;;;;;0.5;0.4;;;;;;;;;;;;;
2021/05/03 15:06:11;;;;;;;0.8;0.5;;;;;;;;;;;;;
2021/05/03 15:08:35;;;;;;;0.7;0.5;;;;;;;;;;;;;
2021/05/03 15:11:01;;;;;;;0.5;0.5;;;;;;;;;;;;;
2021/05/03 15:13:35;;;;;;;0.3;0.3;;;;;;;;;;;;;
2021/05/03 15:15:58;;;;;;;0.6;0.3;;;;;;;;;;;;;
2021/05/03 15:19:14;;;;;;;0.8;0.5;;;;;;;;;;;;;
2021/05/03 15:23:07;;;;;;;0.5;0.4;;;;;;;;;;;;;
2021/05/03 15:25:35;;;;;;;0.2;0.2;;;;;;;;;;;;;
2021/05/03 15:28:13;;;;;;;0.6;0.4;;;;;;;;;;;;;
2021/05/03 15:30:51;;;;;;;0.2;0.2;;;;;;;;;;;;;
2021/05/03 15:33:26;;;;;;;0.9;0.4;;;;;;;;;;;;;
2021/05/03 15:35:15;;;;;;;1.8;0.6;;;;;;;;;;;;;
2021/05/03 15:37:39;;;;;;;0.5;0.3;;;;;;;;;;;;;
2021/05/03 15:40:05;;;;;;;0.4;0.3;;;;;;;;;;;;;
2021/05/03 15:42:30;;;;;;;0.1;0.1;;;;;;;;;;;;;
2021/05/03 15:44:55;;;;;;;0.1;0.1;;;;;;;;;;;;;
2021/05/03 15:47:20;;;;;;;0.4;0.4;;;;;;;;;;;;;
2021/05/03 15:49:45;;;;;;;0.5;0.3;;;;;;;;;;;;;
2021/05/03 15:52:10;;;;;;;0.3;0.3;;;;;;;;;;;;;
2021/05/03 15:54:36;;;;;;;0.2;0.2;;;;;;;;;;;;;
2021/05/03 15:57:01;;;;;;;0.1;0.1;;;;;;;;;;;;;
2021/05/03 15:59:26;;;;;;;0.4;0.3;;;;;;;;;;;;;
2021/05/03 16:01:52;;;;;;;0.1;0.1;;;;;;;;;;;;;
2021/05/03 16:04:16;;;;;;;0.3;0.3;;;;;;;;;;;;;
2021/05/03 16:06:41;;;;;;;0.3;0.3;;;;;;;;;;;;;
2021/05/03 16:09:06;;;;;;;0.5;0.4;;;;;;;;;;;;;
2021/05/03 16:11:31;;;;;;;0.3;0.3;;;;;;;;;;;;;
2021/05/03 16:13:57;;;;;;;0.9;0.4;;;;;;;;;;;;;
2021/05/03 16:16:24;;;;;;;0.2;0.2;;;;;;;;;;;;;
2021/05/03 16:18:47;;;;;;;1.1;0.3;;;;;;;;;;;;;
2021/05/03 16:21:12;;;;;;;0.7;0.4;;;;;;;;;;;;;
2021/05/03 16:23:38;;;;;;;0.3;0.3;;;;;;;;;;;;;
2021/05/03 16:26:03;;;;;;;0.5;0.3;;;;;;;;;;;;;
2021/05/03 16:28:29;;;;;;;0.6;0.3;;;;;;;;;;;;;
2021/05/03 16:30:55;;;;;;;0.6;0.4;;;;;;;;;;;;;
2021/05/03 16:33:20;;;;;;;0.2;0.2;;;;;;;;;;;;;
2021/05/03 16:35:45;;;;;;;1.1;0.4;;;;;;;;;;;;;
2021/05/03 16:38:11;;;;;;;0.7;0.4;;;;;;;;;;;;;
2021/05/03 16:40:37;;;;;;;0.4;0.4;;;;;;;;;;;;;
2021/05/03 16:43:02;;;;;;;0.2;0.2;;;;;;;;;;;;;
2021/05/03 16:45:30;;;;;;;0.8;0.5;;;;;;;;;;;;;
2021/05/03 16:47:54;;;;;;;0.5;0.5;;;;;;;;;;;;;
2021/05/03 16:50:19;;;;;;;0.3;0.3;;;;;;;;;;;;;
2021/05/03 16:52:44;;;;;;;0.8;0.4;;;;;;;;;;;;;
2021/05/03 16:55:10;;;;;;;0.4;0.4;;;;;;;;;;;;;
2021/05/03 16:57:35;;;;;;;1;0.8;;;;;;;;;;;;;
2021/05/03 17:00:01;;;;;;;4;0.5;;;;;;;;;;;;;
2021/05/03 17:02:27;;;;;;;0.8;0.7;;;;;;;;;;;;;
2021/05/03 17:04:54;;;;;;;1.6;0.6;;;;;;;;;;;;;
2021/05/03 17:07:19;;;;;;;0.3;0.2;;;;;;;;;;;;;
2021/05/03 17:09:44;;;;;;;2;0.7;;;;;;;;;;;;;
2021/05/03 17:12:10;;;;;;;0.2;0.2;;;;;;;;;;;;;
2021/05/03 17:14:35;;;;;;;1.1;0.5;;;;;;;;;;;;;
2021/05/03 17:17:00;;;;;;;0.4;0.4;;;;;;;;;;;;;
2021/05/03 17:19:27;;;;;;;0.3;0.3;;;;;;;;;;;;;
2021/05/03 17:21:51;;;;;;;0.3;0.2;;;;;;;;;;;;;
2021/05/03 17:24:16;;;;;;;0.8;0.3;;;;;;;;;;;;;
2021/05/03 17:26:41;;;;;;;1;0.6;;;;;;;;;;;;;
2021/05/03 17:29:06;;;;;;;0.8;0.5;;;;;;;;;;;;;
2021/05/03 17:31:32;;;;;;;1.2;0.7;;;;;;;;;;;;;
2021/05/03 17:33:57;;;;;;;0.4;0.4;;;;;;;;;;;;;
2021/05/03 17:36:24;;;;;;;0.4;0.3;;;;;;;;;;;;;
2021/05/03 17:38:49;;;;;;;1.8;0.4;;;;;;;;;;;;;
2021/05/03 17:41:14;;;;;;;0.3;0.3;;;;;;;;;;;;;
2021/05/03 17:43:39;;;;;;;1.2;0.7;;;;;;;;;;;;;
2021/05/03 17:46:04;;;;;;;6.9;0.7;;;;;;;;;;;;;
2021/05/03 17:48:30;;;;;;;0.4;0.4;;;;;;;;;;;;;
2021/05/03 17:50:55;;;;;;;0.6;0.5;;;;;;;;;;;;;
2021/05/03 17:53:21;;;;;;;0.6;0.5;;;;;;;;;;;;;
2021/05/03 17:55:51;;;;;;;0.4;0.4;;;;;;;;;;;;;
2021/05/03 17:58:10;;;;;;;0.5;0.4;;;;;;;;;;;;;
2021/05/03 18:00:35;;;;;;;0.5;0.5;;;;;;;;;;;;;
2021/05/03 18:03:00;;;;;;;0.2;0.2;;;;;;;;;;;;;
2021/05/03 18:05:28;;;;;;;0.5;0.5;;;;;;;;;;;;;
2021/05/03 18:07:50;;;;;;;0.1;0.1;;;;;;;;;;;;;
2021/05/03 18:10:18;;;;;;;1.3;0.6;;;;;;;;;;;;;
2021/05/03 18:12:42;;;;;;;0.4;0.3;;;;;;;;;;;;;
2021/05/03 18:15:08;;;;;;;0.6;0.4;;;;;;;;;;;;;
2021/05/03 18:17:34;;;;;;;0.4;0.4;;;;;;;;;;;;;
2021/05/03 18:19:59;;;;;;;0.6;0.4;;;;;;;;;;;;;
2021/05/03 18:22:24;;;;;;;0.4;0.4;;;;;;;;;;;;;
2021/05/03 18:24:50;;;;;;;0.5;0.4;;;;;;;;;;;;;
2021/05/03 18:27:15;;;;;;;0.5;0.4;;;;;;;;;;;;;
2021/05/03 18:29:41;;;;;;;0.8;0.5;;;;;;;;;;;;;
2021/05/03 18:32:06;;;;;;;0.3;0.3;;;;;;;;;;;;;
2021/05/03 18:34:33;;;;;;;1.3;0.8;;;;;;;;;;;;;
2021/05/03 18:36:58;;;;;;;0.7;0.5;;;;;;;;;;;;;
2021/05/03 18:39:24;;;;;;;0.5;0.4;;;;;;;;;;;;;
2021/05/03 18:41:50;;;;;;;1.6;0.9;;;;;;;;;;;;;
2021/05/03 18:44:15;;;;;;;0.2;0.2;;;;;;;;;;;;;
2021/05/03 18:46:40;;;;;;;0.5;0.5;;;;;;;;;;;;;
2021/05/03 18:49:11;;;;;;;0.5;0.5;;;;;;;;;;;;;
2021/05/03 18:51:31;;;;;;;0.5;0.5;;;;;;;;;;;;;
2021/05/03 18:53:57;;;;;;;0.5;0.5;;;;;;;;;;;;;
2021/05/03 18:56:38;;;;;;;0.8;0.6;;;;;;;;;;;;;
2021/05/03 18:59:03;;;;;;;1.7;1.1;;;;;;;;;;;;;
2021/05/03 19:01:29;;;;;;;2.6;1;;;;;;;;;;;;;
2021/05/03 19:03:55;;;;;;;0.6;0.6;;;;;;;;;;;;;
2021/05/03 19:06:21;;;;;;;2.9;1;;;;;;;;;;;;;
2021/05/03 19:08:47;;;;;;;0.2;0.2;;;;;;;;;;;;;
2021/05/03 19:11:13;;;;;;;1.5;1;;;;;;;;;;;;;
2021/05/03 19:13:37;;;;;;;1.3;0.9;;;;;;;;;;;;;
2021/05/03 19:16:02;;;;;;;0.5;0.5;;;;;;;;;;;;;
2021/05/03 19:18:28;;;;;;;2.9;0.7;;;;;;;;;;;;;
2021/05/03 19:20:54;;;;;;;0.1;0.1;;;;;;;;;;;;;
2021/05/03 19:23:19;;;;;;;0.3;0.3;;;;;;;;;;;;;
2021/05/03 19:25:44;;;;;;;0.9;0.8;;;;;;;;;;;;;
2021/05/03 19:28:09;;;;;;;1.3;0.3;;;;;;;;;;;;;
2021/05/03 19:30:46;;;;;;;1.3;0.7;;;;;;;;;;;;;
2021/05/03 19:33:00;;;;;;;3.1;2.3;;;;;;;;;;;;;
2021/05/03 19:35:25;;;;;;;5.7;3;;;;;;;;;;;;;
2021/05/03 19:37:50;;;;;;;6.9;2.9;;;;;;;;;;;;;
2021/05/03 19:40:16;;;;;;;4.5;2.7;;;;;;;;;;;;;
2021/05/03 19:42:40;;;;;;;3.9;2.4;;;;;;;;;;;;;
2021/05/03 19:45:05;;;;;;;3.3;2.1;;;;;;;;;;;;;
2021/05/03 19:47:30;;;;;;;1.7;1.4;;;;;;;;;;;;;
2021/05/03 19:49:59;;;;;;;1.9;1.3;;;;;;;;;;;;;
2021/05/03 19:55:00;;;;;;;1.5;0.8;;;;;;;;;;;;;
2021/05/03 20:04:50;;;;;;;2;1;;;;;;;;;;;;;
2021/05/03 20:07:14;;;;;;;1.1;0.5;;;;;;;;;;;;;
2021/05/03 20:09:41;;;;;;;0.4;0.4;;;;;;;;;;;;;
2021/05/03 20:12:06;;;;;;;0.9;0.8;;;;;;;;;;;;;
2021/05/03 20:14:31;;;;;;;0.3;0.3;;;;;;;;;;;;;
2021/05/03 20:16:56;;;;;;;0.7;0.7;;;;;;;;;;;;;
2021/05/03 20:19:21;;;;;;;1.8;1;;;;;;;;;;;;;
2021/05/03 20:21:48;;;;;;;1.1;0.6;;;;;;;;;;;;;
2021/05/03 20:24:13;;;;;;;1.2;0.8;;;;;;;;;;;;;
2021/05/03 20:26:38;;;;;;;1.3;1.2;;;;;;;;;;;;;
2021/05/03 20:29:04;;;;;;;1.3;0.8;;;;;;;;;;;;;
2021/05/03 20:31:30;;;;;;;3.6;1.3;;;;;;;;;;;;;
2021/05/03 20:34:02;;;;;;;0.9;0.9;;;;;;;;;;;;;
2021/05/03 20:36:33;;;;;;;1.6;1.1;;;;;;;;;;;;;
2021/05/03 20:41:12;;;;;;;2.6;1.3;;;;;;;;;;;;;
2021/05/03 20:43:37;;;;;;;0.9;0.8;;;;;;;;;;;;;
2021/05/03 20:46:02;;;;;;;1.2;1;;;;;;;;;;;;;
2021/05/03 20:48:28;;;;;;;2.1;1.3;;;;;;;;;;;;;
2021/05/03 20:50:53;;;;;;;1;0.9;;;;;;;;;;;;;
2021/05/03 20:53:18;;;;;;;7.3;1;;;;;;;;;;;;;
2021/05/03 20:55:43;;;;;;;0.9;0.8;;;;;;;;;;;;;
2021/05/03 20:58:08;;;;;;;0.8;0.7;;;;;;;;;;;;;